sensor_id;sensor_type;location;lat;lon;timestamp;P1;durP1;ratioP1;P2;durP2;ratioP2
55150;SDS011;41041;43.162;20.538;2022-07-06T00:02:17;12.75;;;4.15;;
55150;SDS011;41041;43.162;20.538;2022-07-06T00:04:43;9.48;;;3.50;;
55150;SDS011;41041;43.162;20.538;2022-07-06T00:07:09;10.10;;;3.65;;
55150;SDS011;41041;43.162;20.538;2022-07-06T00:09:35;11.38;;;4.15;;
55150;SDS011;41041;43.162;20.538;2022-07-06T00:12:00;9.65;;;4.35;;
55150;SDS011;41041;43.162;20.538;2022-07-06T00:14:26;6.90;;;3.83;;
55150;SDS011;41041;43.162;20.538;2022-07-06T00:16:52;10.50;;;3.50;;
55150;SDS011;41041;43.162;20.538;2022-07-06T00:19:18;6.97;;;3.67;;
55150;SDS011;41041;43.162;20.538;2022-07-06T00:21:44;8.65;;;3.67;;
55150;SDS011;41041;43.162;20.538;2022-07-06T00:24:10;9.13;;;3.78;;
55150;SDS011;41041;43.162;20.538;2022-07-06T00:26:35;8.65;;;3.30;;
55150;SDS011;41041;43.162;20.538;2022-07-06T00:29:01;9.63;;;3.60;;
55150;SDS011;41041;43.162;20.538;2022-07-06T00:31:27;9.13;;;3.95;;
55150;SDS011;41041;43.162;20.538;2022-07-06T00:33:53;11.95;;;3.55;;
55150;SDS011;41041;43.162;20.538;2022-07-06T00:36:18;8.88;;;3.72;;
55150;SDS011;41041;43.162;20.538;2022-07-06T00:38:44;7.00;;;3.80;;
55150;SDS011;41041;43.162;20.538;2022-07-06T00:41:11;8.88;;;3.67;;
55150;SDS011;41041;43.162;20.538;2022-07-06T00:43:54;13.18;;;4.20;;
55150;SDS011;41041;43.162;20.538;2022-07-06T00:46:31;11.90;;;4.32;;
55150;SDS011;41041;43.162;20.538;2022-07-06T00:48:57;7.90;;;4.20;;
55150;SDS011;41041;43.162;20.538;2022-07-06T00:51:24;8.77;;;4.07;;
55150;SDS011;41041;43.162;20.538;2022-07-06T00:53:53;9.30;;;3.53;;
55150;SDS011;41041;43.162;20.538;2022-07-06T00:56:20;10.65;;;3.70;;
55150;SDS011;41041;43.162;20.538;2022-07-06T00:58:46;15.43;;;4.35;;
55150;SDS011;41041;43.162;20.538;2022-07-06T01:01:12;8.13;;;4.07;;
55150;SDS011;41041;43.162;20.538;2022-07-06T01:03:38;17.15;;;4.70;;
55150;SDS011;41041;43.162;20.538;2022-07-06T01:06:04;11.52;;;4.03;;
55150;SDS011;41041;43.162;20.538;2022-07-06T01:08:30;10.98;;;4.15;;
55150;SDS011;41041;43.162;20.538;2022-07-06T01:10:56;8.30;;;3.67;;
55150;SDS011;41041;43.162;20.538;2022-07-06T01:13:21;12.57;;;4.10;;
55150;SDS011;41041;43.162;20.538;2022-07-06T01:15:47;12.70;;;4.40;;
55150;SDS011;41041;43.162;20.538;2022-07-06T01:18:15;13.00;;;4.53;;
55150;SDS011;41041;43.162;20.538;2022-07-06T01:20:41;11.23;;;5.32;;
55150;SDS011;41041;43.162;20.538;2022-07-06T01:23:06;14.13;;;5.68;;
55150;SDS011;41041;43.162;20.538;2022-07-06T01:25:32;13.10;;;6.65;;
55150;SDS011;41041;43.162;20.538;2022-07-06T01:27:58;15.10;;;6.40;;
55150;SDS011;41041;43.162;20.538;2022-07-06T01:30:24;12.55;;;6.85;;
55150;SDS011;41041;43.162;20.538;2022-07-06T01:32:50;12.20;;;6.43;;
55150;SDS011;41041;43.162;20.538;2022-07-06T01:35:16;16.48;;;5.63;;
55150;SDS011;41041;43.162;20.538;2022-07-06T01:37:42;11.60;;;5.63;;
55150;SDS011;41041;43.162;20.538;2022-07-06T01:40:09;11.88;;;5.57;;
55150;SDS011;41041;43.162;20.538;2022-07-06T01:42:35;10.60;;;5.75;;
55150;SDS011;41041;43.162;20.538;2022-07-06T01:45:03;11.90;;;5.30;;
55150;SDS011;41041;43.162;20.538;2022-07-06T01:47:30;12.70;;;5.93;;
55150;SDS011;41041;43.162;20.538;2022-07-06T01:50:00;13.30;;;6.22;;
55150;SDS011;41041;43.162;20.538;2022-07-06T01:52:34;9.73;;;5.40;;
55150;SDS011;41041;43.162;20.538;2022-07-06T01:55:04;12.93;;;6.07;;
55150;SDS011;41041;43.162;20.538;2022-07-06T01:57:39;10.43;;;6.18;;
55150;SDS011;41041;43.162;20.538;2022-07-06T02:00:11;12.18;;;5.90;;
55150;SDS011;41041;43.162;20.538;2022-07-06T02:02:43;10.93;;;6.05;;
55150;SDS011;41041;43.162;20.538;2022-07-06T02:05:15;8.57;;;4.75;;
55150;SDS011;41041;43.162;20.538;2022-07-06T02:10:50;11.68;;;4.97;;
55150;SDS011;41041;43.162;20.538;2022-07-06T02:13:28;13.27;;;5.50;;
55150;SDS011;41041;43.162;20.538;2022-07-06T02:15:59;13.27;;;5.00;;
55150;SDS011;41041;43.162;20.538;2022-07-06T02:18:29;9.82;;;4.80;;
55150;SDS011;41041;43.162;20.538;2022-07-06T02:21:01;11.35;;;4.57;;
55150;SDS011;41041;43.162;20.538;2022-07-06T02:23:28;8.05;;;4.25;;
55150;SDS011;41041;43.162;20.538;2022-07-06T02:25:54;12.95;;;4.38;;
55150;SDS011;41041;43.162;20.538;2022-07-06T02:28:20;9.77;;;4.05;;
55150;SDS011;41041;43.162;20.538;2022-07-06T02:30:45;11.00;;;4.78;;
55150;SDS011;41041;43.162;20.538;2022-07-06T02:33:11;10.95;;;4.80;;
55150;SDS011;41041;43.162;20.538;2022-07-06T02:35:37;9.73;;;4.85;;
55150;SDS011;41041;43.162;20.538;2022-07-06T02:38:07;13.75;;;5.85;;
55150;SDS011;41041;43.162;20.538;2022-07-06T02:40:33;14.15;;;5.32;;
55150;SDS011;41041;43.162;20.538;2022-07-06T02:46:21;12.80;;;5.65;;
55150;SDS011;41041;43.162;20.538;2022-07-06T02:48:46;15.90;;;6.25;;
55150;SDS011;41041;43.162;20.538;2022-07-06T02:51:13;13.25;;;6.50;;
55150;SDS011;41041;43.162;20.538;2022-07-06T02:53:39;14.60;;;6.13;;
55150;SDS011;41041;43.162;20.538;2022-07-06T02:56:04;7.78;;;5.75;;
55150;SDS011;41041;43.162;20.538;2022-07-06T02:58:30;12.13;;;5.90;;
55150;SDS011;41041;43.162;20.538;2022-07-06T03:00:56;10.88;;;5.45;;
55150;SDS011;41041;43.162;20.538;2022-07-06T03:03:22;10.40;;;5.60;;
55150;SDS011;41041;43.162;20.538;2022-07-06T03:05:48;11.00;;;6.53;;
55150;SDS011;41041;43.162;20.538;2022-07-06T03:08:13;8.35;;;5.47;;
55150;SDS011;41041;43.162;20.538;2022-07-06T03:10:39;12.95;;;6.18;;
55150;SDS011;41041;43.162;20.538;2022-07-06T03:13:06;7.85;;;5.57;;
55150;SDS011;41041;43.162;20.538;2022-07-06T03:15:32;11.25;;;5.30;;
55150;SDS011;41041;43.162;20.538;2022-07-06T03:17:57;9.00;;;5.03;;
55150;SDS011;41041;43.162;20.538;2022-07-06T03:20:23;14.60;;;6.25;;
55150;SDS011;41041;43.162;20.538;2022-07-06T03:22:50;15.32;;;5.95;;
55150;SDS011;41041;43.162;20.538;2022-07-06T03:25:16;12.45;;;5.88;;
55150;SDS011;41041;43.162;20.538;2022-07-06T03:27:41;11.13;;;5.68;;
55150;SDS011;41041;43.162;20.538;2022-07-06T03:30:07;13.93;;;5.65;;
55150;SDS011;41041;43.162;20.538;2022-07-06T03:32:33;11.57;;;5.30;;
55150;SDS011;41041;43.162;20.538;2022-07-06T03:34:59;10.57;;;5.60;;
55150;SDS011;41041;43.162;20.538;2022-07-06T03:37:24;8.93;;;5.05;;
55150;SDS011;41041;43.162;20.538;2022-07-06T03:39:50;16.92;;;5.47;;
55150;SDS011;41041;43.162;20.538;2022-07-06T03:42:16;11.60;;;5.05;;
55150;SDS011;41041;43.162;20.538;2022-07-06T03:44:43;11.20;;;4.97;;
55150;SDS011;41041;43.162;20.538;2022-07-06T03:47:08;11.95;;;4.85;;
55150;SDS011;41041;43.162;20.538;2022-07-06T03:49:34;12.25;;;4.80;;
55150;SDS011;41041;43.162;20.538;2022-07-06T03:52:00;10.00;;;4.90;;
55150;SDS011;41041;43.162;20.538;2022-07-06T03:54:25;8.65;;;4.70;;
55150;SDS011;41041;43.162;20.538;2022-07-06T03:56:51;14.68;;;4.93;;
55150;SDS011;41041;43.162;20.538;2022-07-06T03:59:17;8.38;;;4.90;;
55150;SDS011;41041;43.162;20.538;2022-07-06T04:01:43;10.93;;;4.63;;
55150;SDS011;41041;43.162;20.538;2022-07-06T04:04:08;11.32;;;4.50;;
55150;SDS011;41041;43.162;20.538;2022-07-06T04:06:34;7.55;;;4.70;;
55150;SDS011;41041;43.162;20.538;2022-07-06T04:09:00;7.78;;;4.85;;
55150;SDS011;41041;43.162;20.538;2022-07-06T04:11:26;10.52;;;4.82;;
55150;SDS011;41041;43.162;20.538;2022-07-06T04:13:52;8.85;;;5.20;;
55150;SDS011;41041;43.162;20.538;2022-07-06T04:16:19;13.15;;;5.05;;
55150;SDS011;41041;43.162;20.538;2022-07-06T04:18:45;16.20;;;5.30;;
55150;SDS011;41041;43.162;20.538;2022-07-06T04:21:11;11.57;;;5.00;;
55150;SDS011;41041;43.162;20.538;2022-07-06T04:23:36;9.23;;;4.80;;
55150;SDS011;41041;43.162;20.538;2022-07-06T04:26:02;7.80;;;4.80;;
55150;SDS011;41041;43.162;20.538;2022-07-06T04:28:28;12.85;;;5.18;;
55150;SDS011;41041;43.162;20.538;2022-07-06T04:30:53;13.15;;;5.13;;
55150;SDS011;41041;43.162;20.538;2022-07-06T04:33:19;10.38;;;4.63;;
55150;SDS011;41041;43.162;20.538;2022-07-06T04:35:45;10.90;;;4.90;;
55150;SDS011;41041;43.162;20.538;2022-07-06T04:38:10;7.88;;;4.45;;
55150;SDS011;41041;43.162;20.538;2022-07-06T04:40:53;7.28;;;4.15;;
55150;SDS011;41041;43.162;20.538;2022-07-06T04:43:18;16.13;;;5.72;;
55150;SDS011;41041;43.162;20.538;2022-07-06T04:45:44;13.88;;;6.10;;
55150;SDS011;41041;43.162;20.538;2022-07-06T04:48:10;12.52;;;5.20;;
55150;SDS011;41041;43.162;20.538;2022-07-06T04:50:36;10.13;;;4.80;;
55150;SDS011;41041;43.162;20.538;2022-07-06T04:53:01;9.73;;;5.20;;
55150;SDS011;41041;43.162;20.538;2022-07-06T04:55:27;13.52;;;5.60;;
55150;SDS011;41041;43.162;20.538;2022-07-06T04:57:53;13.00;;;5.55;;
55150;SDS011;41041;43.162;20.538;2022-07-06T05:00:20;11.30;;;5.35;;
55150;SDS011;41041;43.162;20.538;2022-07-06T05:02:46;11.13;;;5.50;;
55150;SDS011;41041;43.162;20.538;2022-07-06T05:05:18;11.60;;;6.25;;
55150;SDS011;41041;43.162;20.538;2022-07-06T05:07:44;11.60;;;6.20;;
55150;SDS011;41041;43.162;20.538;2022-07-06T05:10:10;14.50;;;6.30;;
55150;SDS011;41041;43.162;20.538;2022-07-06T05:12:37;13.75;;;6.07;;
55150;SDS011;41041;43.162;20.538;2022-07-06T05:15:04;16.55;;;6.38;;
55150;SDS011;41041;43.162;20.538;2022-07-06T05:17:30;14.88;;;6.15;;
55150;SDS011;41041;43.162;20.538;2022-07-06T05:19:56;21.65;;;6.13;;
55150;SDS011;41041;43.162;20.538;2022-07-06T05:22:30;17.30;;;6.85;;
55150;SDS011;41041;43.162;20.538;2022-07-06T05:24:56;14.43;;;5.68;;
55150;SDS011;41041;43.162;20.538;2022-07-06T05:27:21;12.98;;;5.07;;
55150;SDS011;41041;43.162;20.538;2022-07-06T05:29:47;9.93;;;5.22;;
55150;SDS011;41041;43.162;20.538;2022-07-06T05:32:13;13.07;;;5.55;;
55150;SDS011;41041;43.162;20.538;2022-07-06T05:34:39;11.73;;;5.20;;
55150;SDS011;41041;43.162;20.538;2022-07-06T05:37:05;14.18;;;5.88;;
55150;SDS011;41041;43.162;20.538;2022-07-06T05:39:30;14.60;;;6.05;;
55150;SDS011;41041;43.162;20.538;2022-07-06T05:41:56;10.98;;;6.60;;
55150;SDS011;41041;43.162;20.538;2022-07-06T05:44:22;15.35;;;6.20;;
55150;SDS011;41041;43.162;20.538;2022-07-06T05:46:48;14.88;;;6.00;;
55150;SDS011;41041;43.162;20.538;2022-07-06T05:49:14;16.83;;;6.18;;
55150;SDS011;41041;43.162;20.538;2022-07-06T05:51:58;12.38;;;6.13;;
55150;SDS011;41041;43.162;20.538;2022-07-06T05:54:23;11.57;;;5.93;;
55150;SDS011;41041;43.162;20.538;2022-07-06T05:56:49;15.77;;;6.03;;
55150;SDS011;41041;43.162;20.538;2022-07-06T05:59:15;15.65;;;5.72;;
55150;SDS011;41041;43.162;20.538;2022-07-06T06:01:40;15.88;;;5.82;;
55150;SDS011;41041;43.162;20.538;2022-07-06T06:04:06;11.55;;;5.65;;
55150;SDS011;41041;43.162;20.538;2022-07-06T06:06:32;12.50;;;5.90;;
55150;SDS011;41041;43.162;20.538;2022-07-06T06:08:58;14.95;;;6.00;;
55150;SDS011;41041;43.162;20.538;2022-07-06T06:11:23;13.07;;;5.82;;
55150;SDS011;41041;43.162;20.538;2022-07-06T06:13:49;13.02;;;5.88;;
55150;SDS011;41041;43.162;20.538;2022-07-06T06:16:15;14.50;;;5.47;;
55150;SDS011;41041;43.162;20.538;2022-07-06T06:18:41;14.23;;;5.80;;
55150;SDS011;41041;43.162;20.538;2022-07-06T06:21:07;12.02;;;6.38;;
55150;SDS011;41041;43.162;20.538;2022-07-06T06:23:33;10.10;;;5.38;;
55150;SDS011;41041;43.162;20.538;2022-07-06T06:25:58;13.02;;;6.45;;
55150;SDS011;41041;43.162;20.538;2022-07-06T06:28:24;15.02;;;5.60;;
55150;SDS011;41041;43.162;20.538;2022-07-06T06:30:50;13.52;;;6.03;;
55150;SDS011;41041;43.162;20.538;2022-07-06T06:33:16;13.77;;;5.30;;
55150;SDS011;41041;43.162;20.538;2022-07-06T06:35:44;17.85;;;6.18;;
55150;SDS011;41041;43.162;20.538;2022-07-06T06:38:11;18.92;;;5.97;;
55150;SDS011;41041;43.162;20.538;2022-07-06T06:40:41;16.73;;;6.20;;
55150;SDS011;41041;43.162;20.538;2022-07-06T06:43:07;9.55;;;5.57;;
55150;SDS011;41041;43.162;20.538;2022-07-06T06:45:33;15.68;;;5.45;;
55150;SDS011;41041;43.162;20.538;2022-07-06T06:48:14;19.35;;;6.28;;
55150;SDS011;41041;43.162;20.538;2022-07-06T06:50:42;15.60;;;5.40;;
55150;SDS011;41041;43.162;20.538;2022-07-06T06:53:08;20.90;;;5.97;;
55150;SDS011;41041;43.162;20.538;2022-07-06T06:55:46;22.83;;;6.07;;
55150;SDS011;41041;43.162;20.538;2022-07-06T06:58:12;18.13;;;6.07;;
55150;SDS011;41041;43.162;20.538;2022-07-06T07:00:37;12.88;;;5.78;;
55150;SDS011;41041;43.162;20.538;2022-07-06T07:05:32;14.82;;;5.95;;
55150;SDS011;41041;43.162;20.538;2022-07-06T07:07:58;16.85;;;6.03;;
55150;SDS011;41041;43.162;20.538;2022-07-06T07:10:24;16.85;;;6.10;;
55150;SDS011;41041;43.162;20.538;2022-07-06T07:12:51;16.08;;;6.43;;
55150;SDS011;41041;43.162;20.538;2022-07-06T07:15:17;13.68;;;5.90;;
55150;SDS011;41041;43.162;20.538;2022-07-06T07:17:43;13.52;;;5.70;;
55150;SDS011;41041;43.162;20.538;2022-07-06T07:20:12;15.45;;;6.35;;
55150;SDS011;41041;43.162;20.538;2022-07-06T07:22:37;14.13;;;4.65;;
55150;SDS011;41041;43.162;20.538;2022-07-06T07:25:04;16.73;;;4.80;;
55150;SDS011;41041;43.162;20.538;2022-07-06T07:27:30;11.80;;;4.88;;
55150;SDS011;41041;43.162;20.538;2022-07-06T07:29:56;10.23;;;4.55;;
55150;SDS011;41041;43.162;20.538;2022-07-06T07:32:22;11.10;;;4.50;;
55150;SDS011;41041;43.162;20.538;2022-07-06T07:34:48;11.20;;;4.05;;
55150;SDS011;41041;43.162;20.538;2022-07-06T07:37:13;9.20;;;4.35;;
55150;SDS011;41041;43.162;20.538;2022-07-06T07:39:39;8.63;;;4.45;;
55150;SDS011;41041;43.162;20.538;2022-07-06T07:44:34;9.45;;;4.65;;
55150;SDS011;41041;43.162;20.538;2022-07-06T07:47:00;10.38;;;4.10;;
55150;SDS011;41041;43.162;20.538;2022-07-06T07:49:25;8.38;;;4.15;;
55150;SDS011;41041;43.162;20.538;2022-07-06T07:51:51;8.13;;;4.25;;
55150;SDS011;41041;43.162;20.538;2022-07-06T07:54:17;11.35;;;4.10;;
55150;SDS011;41041;43.162;20.538;2022-07-06T07:56:43;8.88;;;3.78;;
55150;SDS011;41041;43.162;20.538;2022-07-06T07:59:09;6.65;;;3.60;;
55150;SDS011;41041;43.162;20.538;2022-07-06T08:01:39;5.70;;;3.38;;
55150;SDS011;41041;43.162;20.538;2022-07-06T08:04:04;7.43;;;3.33;;
55150;SDS011;41041;43.162;20.538;2022-07-06T08:06:30;5.35;;;3.33;;
55150;SDS011;41041;43.162;20.538;2022-07-06T08:08:56;7.55;;;3.15;;
55150;SDS011;41041;43.162;20.538;2022-07-06T08:11:22;4.78;;;2.78;;
55150;SDS011;41041;43.162;20.538;2022-07-06T08:13:48;8.00;;;3.40;;
55150;SDS011;41041;43.162;20.538;2022-07-06T08:16:13;4.72;;;3.00;;
55150;SDS011;41041;43.162;20.538;2022-07-06T08:18:39;5.20;;;3.05;;
55150;SDS011;41041;43.162;20.538;2022-07-06T08:21:05;5.03;;;2.63;;
55150;SDS011;41041;43.162;20.538;2022-07-06T08:23:31;6.68;;;3.45;;
55150;SDS011;41041;43.162;20.538;2022-07-06T08:26:06;6.32;;;3.08;;
55150;SDS011;41041;43.162;20.538;2022-07-06T08:28:32;5.40;;;2.80;;
55150;SDS011;41041;43.162;20.538;2022-07-06T08:31:05;5.47;;;2.97;;
55150;SDS011;41041;43.162;20.538;2022-07-06T08:33:31;6.15;;;2.10;;
55150;SDS011;41041;43.162;20.538;2022-07-06T08:35:57;3.88;;;2.00;;
55150;SDS011;41041;43.162;20.538;2022-07-06T08:38:24;6.70;;;2.13;;
55150;SDS011;41041;43.162;20.538;2022-07-06T08:40:50;4.28;;;2.10;;
55150;SDS011;41041;43.162;20.538;2022-07-06T08:43:17;5.80;;;2.00;;
55150;SDS011;41041;43.162;20.538;2022-07-06T08:45:42;7.22;;;2.40;;
55150;SDS011;41041;43.162;20.538;2022-07-06T08:48:11;6.47;;;2.50;;
55150;SDS011;41041;43.162;20.538;2022-07-06T08:50:37;6.75;;;2.85;;
55150;SDS011;41041;43.162;20.538;2022-07-06T08:53:06;3.60;;;2.17;;
55150;SDS011;41041;43.162;20.538;2022-07-06T08:55:32;4.78;;;2.50;;
55150;SDS011;41041;43.162;20.538;2022-07-06T08:57:58;6.50;;;2.60;;
55150;SDS011;41041;43.162;20.538;2022-07-06T09:00:24;4.45;;;2.30;;
55150;SDS011;41041;43.162;20.538;2022-07-06T09:02:58;5.00;;;2.70;;
55150;SDS011;41041;43.162;20.538;2022-07-06T09:05:24;5.28;;;2.35;;
55150;SDS011;41041;43.162;20.538;2022-07-06T09:07:50;3.95;;;2.80;;
55150;SDS011;41041;43.162;20.538;2022-07-06T09:10:18;6.85;;;3.22;;
55150;SDS011;41041;43.162;20.538;2022-07-06T09:12:44;8.38;;;2.85;;
55150;SDS011;41041;43.162;20.538;2022-07-06T09:15:14;5.22;;;2.42;;
55150;SDS011;41041;43.162;20.538;2022-07-06T09:17:44;3.95;;;2.22;;
55150;SDS011;41041;43.162;20.538;2022-07-06T09:20:10;5.93;;;2.30;;
55150;SDS011;41041;43.162;20.538;2022-07-06T09:22:37;6.57;;;2.45;;
55150;SDS011;41041;43.162;20.538;2022-07-06T09:25:11;4.68;;;2.45;;
55150;SDS011;41041;43.162;20.538;2022-07-06T09:28:01;4.78;;;2.20;;
55150;SDS011;41041;43.162;20.538;2022-07-06T09:57:17;4.93;;;2.40;;
55150;SDS011;41041;43.162;20.538;2022-07-06T09:59:49;6.28;;;2.60;;
55150;SDS011;41041;43.162;20.538;2022-07-06T10:02:19;5.10;;;2.50;;
55150;SDS011;41041;43.162;20.538;2022-07-06T10:04:49;4.15;;;2.40;;
55150;SDS011;41041;43.162;20.538;2022-07-06T10:07:20;4.18;;;2.50;;
55150;SDS011;41041;43.162;20.538;2022-07-06T10:09:49;4.32;;;2.70;;
55150;SDS011;41041;43.162;20.538;2022-07-06T10:12:16;2.78;;;2.20;;
55150;SDS011;41041;43.162;20.538;2022-07-06T10:14:47;3.63;;;2.47;;
55150;SDS011;41041;43.162;20.538;2022-07-06T10:17:15;3.33;;;2.42;;
55150;SDS011;41041;43.162;20.538;2022-07-06T10:19:41;3.20;;;2.30;;
55150;SDS011;41041;43.162;20.538;2022-07-06T10:22:11;3.58;;;2.22;;
55150;SDS011;41041;43.162;20.538;2022-07-06T10:24:39;7.35;;;1.95;;
55150;SDS011;41041;43.162;20.538;2022-07-06T10:27:11;4.88;;;2.10;;
55150;SDS011;41041;43.162;20.538;2022-07-06T10:29:39;3.20;;;1.98;;
55150;SDS011;41041;43.162;20.538;2022-07-06T10:32:05;5.65;;;2.13;;
55150;SDS011;41041;43.162;20.538;2022-07-06T10:34:32;4.93;;;2.30;;
55150;SDS011;41041;43.162;20.538;2022-07-06T10:36:59;3.90;;;2.10;;
55150;SDS011;41041;43.162;20.538;2022-07-06T10:39:45;4.13;;;1.98;;
55150;SDS011;41041;43.162;20.538;2022-07-06T10:42:47;3.15;;;2.30;;
55150;SDS011;41041;43.162;20.538;2022-07-06T10:45:15;3.35;;;2.00;;
55150;SDS011;41041;43.162;20.538;2022-07-06T10:50:38;3.38;;;1.60;;
55150;SDS011;41041;43.162;20.538;2022-07-06T10:53:11;2.85;;;1.80;;
55150;SDS011;41041;43.162;20.538;2022-07-06T10:55:58;2.13;;;1.50;;
55150;SDS011;41041;43.162;20.538;2022-07-06T11:01:10;3.65;;;1.27;;
55150;SDS011;41041;43.162;20.538;2022-07-06T11:03:37;2.38;;;1.40;;
55150;SDS011;41041;43.162;20.538;2022-07-06T11:08:45;7.05;;;1.40;;
55150;SDS011;41041;43.162;20.538;2022-07-06T11:14:01;2.40;;;1.23;;
55150;SDS011;41041;43.162;20.538;2022-07-06T11:16:35;3.65;;;1.40;;
55150;SDS011;41041;43.162;20.538;2022-07-06T11:19:20;2.05;;;1.35;;
55150;SDS011;41041;43.162;20.538;2022-07-06T11:25:10;3.67;;;1.30;;
55150;SDS011;41041;43.162;20.538;2022-07-06T11:27:36;3.80;;;1.27;;
55150;SDS011;41041;43.162;20.538;2022-07-06T11:30:02;2.35;;;1.20;;
55150;SDS011;41041;43.162;20.538;2022-07-06T11:32:31;4.15;;;1.10;;
55150;SDS011;41041;43.162;20.538;2022-07-06T11:35:11;3.13;;;1.17;;
55150;SDS011;41041;43.162;20.538;2022-07-06T11:37:37;2.20;;;1.10;;
55150;SDS011;41041;43.162;20.538;2022-07-06T11:40:06;3.47;;;1.10;;
55150;SDS011;41041;43.162;20.538;2022-07-06T11:42:32;4.70;;;1.30;;
55150;SDS011;41041;43.162;20.538;2022-07-06T11:45:01;3.70;;;1.20;;
55150;SDS011;41041;43.162;20.538;2022-07-06T11:49:59;2.20;;;1.00;;
55150;SDS011;41041;43.162;20.538;2022-07-06T11:52:28;4.35;;;1.40;;
55150;SDS011;41041;43.162;20.538;2022-07-06T11:57:32;6.50;;;1.35;;
55150;SDS011;41041;43.162;20.538;2022-07-06T11:59:59;2.55;;;1.20;;
55150;SDS011;41041;43.162;20.538;2022-07-06T12:02:30;2.20;;;1.10;;
55150;SDS011;41041;43.162;20.538;2022-07-06T12:05:12;4.45;;;1.00;;
55150;SDS011;41041;43.162;20.538;2022-07-06T12:07:41;2.83;;;1.20;;
55150;SDS011;41041;43.162;20.538;2022-07-06T12:10:12;3.22;;;1.48;;
55150;SDS011;41041;43.162;20.538;2022-07-06T12:13:01;2.92;;;0.90;;
55150;SDS011;41041;43.162;20.538;2022-07-06T12:15:28;2.55;;;1.10;;
55150;SDS011;41041;43.162;20.538;2022-07-06T12:18:07;1.60;;;1.15;;
55150;SDS011;41041;43.162;20.538;2022-07-06T12:20:33;2.45;;;1.13;;
55150;SDS011;41041;43.162;20.538;2022-07-06T12:23:18;1.85;;;1.30;;
55150;SDS011;41041;43.162;20.538;2022-07-06T12:25:46;3.75;;;1.02;;
55150;SDS011;41041;43.162;20.538;2022-07-06T12:28:22;2.85;;;1.20;;
55150;SDS011;41041;43.162;20.538;2022-07-06T12:30:48;2.60;;;1.10;;
55150;SDS011;41041;43.162;20.538;2022-07-06T12:33:23;2.78;;;1.50;;
55150;SDS011;41041;43.162;20.538;2022-07-06T12:35:52;1.67;;;1.05;;
55150;SDS011;41041;43.162;20.538;2022-07-06T12:38:22;1.90;;;1.20;;
55150;SDS011;41041;43.162;20.538;2022-07-06T12:41:04;4.15;;;1.10;;
55150;SDS011;41041;43.162;20.538;2022-07-06T12:43:37;1.90;;;1.17;;
55150;SDS011;41041;43.162;20.538;2022-07-06T13:00:44;2.40;;;1.20;;
55150;SDS011;41041;43.162;20.538;2022-07-06T13:03:11;3.20;;;1.30;;
55150;SDS011;41041;43.162;20.538;2022-07-06T13:05:37;3.78;;;1.20;;
55150;SDS011;41041;43.162;20.538;2022-07-06T13:08:03;2.15;;;1.30;;
55150;SDS011;41041;43.162;20.538;2022-07-06T13:10:29;5.75;;;1.40;;
55150;SDS011;41041;43.162;20.538;2022-07-06T13:13:01;2.25;;;1.20;;
55150;SDS011;41041;43.162;20.538;2022-07-06T13:15:26;6.45;;;1.50;;
55150;SDS011;41041;43.162;20.538;2022-07-06T13:17:52;2.53;;;1.30;;
55150;SDS011;41041;43.162;20.538;2022-07-06T13:20:18;2.22;;;1.20;;
55150;SDS011;41041;43.162;20.538;2022-07-06T13:22:44;1.80;;;1.10;;
55150;SDS011;41041;43.162;20.538;2022-07-06T13:25:10;5.82;;;1.58;;
55150;SDS011;41041;43.162;20.538;2022-07-06T13:27:35;2.85;;;1.50;;
55150;SDS011;41041;43.162;20.538;2022-07-06T13:30:01;3.05;;;1.45;;
55150;SDS011;41041;43.162;20.538;2022-07-06T13:32:28;5.13;;;1.70;;
55150;SDS011;41041;43.162;20.538;2022-07-06T13:34:54;1.95;;;1.20;;
55150;SDS011;41041;43.162;20.538;2022-07-06T13:37:19;4.45;;;1.50;;
55150;SDS011;41041;43.162;20.538;2022-07-06T13:39:46;6.30;;;1.30;;
55150;SDS011;41041;43.162;20.538;2022-07-06T13:42:11;3.45;;;1.20;;
55150;SDS011;41041;43.162;20.538;2022-07-06T13:44:37;2.40;;;1.25;;
55150;SDS011;41041;43.162;20.538;2022-07-06T13:47:03;2.30;;;1.13;;
55150;SDS011;41041;43.162;20.538;2022-07-06T13:49:29;3.47;;;1.20;;
55150;SDS011;41041;43.162;20.538;2022-07-06T13:51:55;4.43;;;1.17;;
55150;SDS011;41041;43.162;20.538;2022-07-06T13:54:27;5.18;;;1.30;;
55150;SDS011;41041;43.162;20.538;2022-07-06T13:56:53;5.22;;;1.75;;
55150;SDS011;41041;43.162;20.538;2022-07-06T13:59:19;2.05;;;1.20;;
55150;SDS011;41041;43.162;20.538;2022-07-06T14:01:44;4.20;;;1.30;;
55150;SDS011;41041;43.162;20.538;2022-07-06T14:04:10;3.30;;;1.48;;
55150;SDS011;41041;43.162;20.538;2022-07-06T14:06:36;7.30;;;1.30;;
55150;SDS011;41041;43.162;20.538;2022-07-06T14:09:02;4.15;;;1.40;;
55150;SDS011;41041;43.162;20.538;2022-07-06T14:11:28;6.32;;;1.38;;
55150;SDS011;41041;43.162;20.538;2022-07-06T14:13:54;5.50;;;1.30;;
55150;SDS011;41041;43.162;20.538;2022-07-06T14:16:19;2.58;;;1.20;;
55150;SDS011;41041;43.162;20.538;2022-07-06T14:18:45;1.90;;;1.10;;
55150;SDS011;41041;43.162;20.538;2022-07-06T14:21:11;5.93;;;1.83;;
55150;SDS011;41041;43.162;20.538;2022-07-06T14:23:37;5.90;;;1.65;;
55150;SDS011;41041;43.162;20.538;2022-07-06T14:26:03;4.40;;;1.80;;
55150;SDS011;41041;43.162;20.538;2022-07-06T14:28:31;7.97;;;1.60;;
55150;SDS011;41041;43.162;20.538;2022-07-06T14:30:57;4.20;;;1.30;;
55150;SDS011;41041;43.162;20.538;2022-07-06T14:33:22;2.85;;;1.38;;
55150;SDS011;41041;43.162;20.538;2022-07-06T14:35:59;5.00;;;1.50;;
55150;SDS011;41041;43.162;20.538;2022-07-06T14:38:25;5.07;;;1.52;;
55150;SDS011;41041;43.162;20.538;2022-07-06T14:40:52;2.30;;;1.33;;
55150;SDS011;41041;43.162;20.538;2022-07-06T14:43:19;2.63;;;1.50;;
55150;SDS011;41041;43.162;20.538;2022-07-06T14:45:45;2.85;;;1.58;;
55150;SDS011;41041;43.162;20.538;2022-07-06T14:48:11;4.00;;;1.48;;
55150;SDS011;41041;43.162;20.538;2022-07-06T14:50:37;4.85;;;1.67;;
55150;SDS011;41041;43.162;20.538;2022-07-06T14:53:03;8.18;;;1.85;;
55150;SDS011;41041;43.162;20.538;2022-07-06T14:55:29;3.80;;;1.52;;
55150;SDS011;41041;43.162;20.538;2022-07-06T14:57:55;2.78;;;1.40;;
55150;SDS011;41041;43.162;20.538;2022-07-06T15:00:21;9.93;;;1.70;;
55150;SDS011;41041;43.162;20.538;2022-07-06T15:02:47;3.15;;;1.70;;
55150;SDS011;41041;43.162;20.538;2022-07-06T15:05:13;3.55;;;1.55;;
55150;SDS011;41041;43.162;20.538;2022-07-06T15:07:39;3.72;;;1.70;;
55150;SDS011;41041;43.162;20.538;2022-07-06T15:10:05;4.85;;;1.80;;
55150;SDS011;41041;43.162;20.538;2022-07-06T15:12:32;4.85;;;1.90;;
55150;SDS011;41041;43.162;20.538;2022-07-06T15:15:00;2.95;;;1.50;;
55150;SDS011;41041;43.162;20.538;2022-07-06T15:17:26;7.05;;;2.33;;
55150;SDS011;41041;43.162;20.538;2022-07-06T15:19:53;3.88;;;1.90;;
55150;SDS011;41041;43.162;20.538;2022-07-06T15:22:19;5.07;;;1.80;;
55150;SDS011;41041;43.162;20.538;2022-07-06T15:24:46;2.55;;;1.75;;
55150;SDS011;41041;43.162;20.538;2022-07-06T15:27:12;5.90;;;1.90;;
55150;SDS011;41041;43.162;20.538;2022-07-06T15:29:38;3.13;;;1.60;;
55150;SDS011;41041;43.162;20.538;2022-07-06T15:32:04;2.92;;;1.58;;
55150;SDS011;41041;43.162;20.538;2022-07-06T15:34:30;5.38;;;1.65;;
55150;SDS011;41041;43.162;20.538;2022-07-06T15:37:04;4.38;;;1.80;;
55150;SDS011;41041;43.162;20.538;2022-07-06T15:39:29;2.50;;;1.70;;
55150;SDS011;41041;43.162;20.538;2022-07-06T15:41:55;4.47;;;1.60;;
55150;SDS011;41041;43.162;20.538;2022-07-06T15:44:21;3.30;;;1.75;;